Time;durP1;ratioP1;P1;durP2;ratioP2;P2;SDS_P1;SDS_P2;PMS_P1;PMS_P2;Temp;Humidity;BMP_temperature;BMP_pressure;BME280_temperature;BME280_humidity;BME280_pressure;Samples;Min_cycle;Max_cycle;Signal;HPM_P1;HPM_P2
2022/04/03 00:00:13;;;;;;;6.47;4.97;;;5.70;99.90;;;;;;5012500;28;20516;-87
2022/04/03 00:02:39;;;;;;;6.55;4.50;;;5.70;99.90;;;;;;5012485;28;20025;-87
2022/04/03 00:05:05;;;;;;;6.97;4.80;;;5.60;99.90;;;;;;5012638;28;20117;-87
2022/04/03 00:07:32;;;;;;;7.35;5.20;;;5.60;99.90;;;;;;5012567;28;20033;-88
2022/04/03 00:09:58;;;;;;;9.38;5.53;;;5.60;99.90;;;;;;5012444;28;20109;-87
2022/04/03 00:12:24;;;;;;;6.95;5.30;;;5.60;99.90;;;;;;5012431;28;20033;-87
2022/04/03 00:14:50;;;;;;;10.00;5.85;;;5.60;99.90;;;;;;5013723;28;20022;-87
2022/04/03 00:17:16;;;;;;;7.78;5.63;;;5.60;99.90;;;;;;5012658;28;20066;-87
2022/04/03 00:19:42;;;;;;;7.35;5.53;;;5.60;99.90;;;;;;5011841;28;20030;-87
2022/04/03 00:22:11;;;;;;;7.78;5.45;;;5.60;99.90;;;;;;5012586;28;20508;-87
2022/04/03 00:24:37;;;;;;;8.30;5.53;;;5.60;99.90;;;;;;5013961;28;20026;-87
2022/04/03 00:27:03;;;;;;;7.78;5.40;;;5.60;99.90;;;;;;5013820;28;20385;-87
2022/04/03 00:29:29;;;;;;;7.00;5.32;;;5.60;99.90;;;;;;5012836;28;20022;-88
2022/04/03 00:31:55;;;;;;;6.63;5.50;;;5.60;99.90;;;;;;5012239;28;20036;-86
2022/04/03 00:34:26;;;;;;;6.80;5.30;;;5.60;99.90;;;;;;4996462;28;20061;-87
2022/04/03 00:36:54;;;;;;;8.43;5.82;;;5.60;99.90;;;;;;5013311;28;20037;-87
2022/04/03 00:39:20;;;;;;;7.75;6.13;;;5.60;99.90;;;;;;5014305;28;20057;-88
2022/04/03 00:41:46;;;;;;;8.23;5.53;;;5.60;99.90;;;;;;5015871;28;20025;-87
2022/04/03 00:44:12;;;;;;;8.15;6.10;;;5.60;99.90;;;;;;5017448;28;20033;-87
2022/04/03 00:46:40;;;;;;;8.13;5.68;;;5.60;99.90;;;;;;5015875;28;20030;-87
2022/04/03 00:49:06;;;;;;;7.82;5.57;;;5.60;99.90;;;;;;5015982;28;20485;-88
2022/04/03 00:51:33;;;;;;;8.50;5.68;;;5.60;99.90;;;;;;5015406;28;20084;-87
2022/04/03 00:53:59;;;;;;;8.98;6.00;;;5.60;99.90;;;;;;5017316;28;20038;-87
2022/04/03 00:56:25;;;;;;;7.57;5.38;;;5.60;99.90;;;;;;5016710;28;20037;-87
2022/04/03 00:58:51;;;;;;;8.55;5.60;;;5.60;99.90;;;;;;5015162;28;20030;-87
2022/04/03 01:01:17;;;;;;;8.05;5.90;;;5.60;99.90;;;;;;5015261;28;20080;-87
2022/04/03 01:03:43;;;;;;;9.15;5.43;;;5.60;99.90;;;;;;5017095;28;20022;-87
2022/04/03 01:06:09;;;;;;;7.55;5.47;;;5.60;99.90;;;;;;5015766;28;20396;-87
2022/04/03 01:08:34;;;;;;;8.57;5.70;;;5.60;99.90;;;;;;5015302;28;20466;-87
2022/04/03 01:11:00;;;;;;;9.18;5.80;;;5.60;99.90;;;;;;5015545;28;20064;-87
2022/04/03 01:13:26;;;;;;;6.97;5.90;;;5.50;99.90;;;;;;5015851;28;20030;-87
2022/04/03 01:15:53;;;;;;;10.02;5.90;;;5.50;99.90;;;;;;5015580;28;20026;-87
2022/04/03 01:18:19;;;;;;;8.75;6.13;;;5.60;99.90;;;;;;5015472;28;20508;-87
2022/04/03 01:20:46;;;;;;;11.68;6.55;;;5.50;99.90;;;;;;5015388;28;20061;-87
2022/04/03 01:23:11;;;;;;;8.20;5.60;;;5.50;99.90;;;;;;5015365;28;20026;-87
2022/04/03 01:25:37;;;;;;;8.95;5.70;;;5.50;99.90;;;;;;5015124;28;20033;-87
2022/04/03 01:28:06;;;;;;;9.65;6.20;;;5.50;99.90;;;;;;5016627;28;20022;-87
2022/04/03 01:30:31;;;;;;;8.55;6.22;;;5.50;99.90;;;;;;5015361;28;20378;-87
2022/04/03 01:32:57;;;;;;;11.77;6.45;;;5.50;99.90;;;;;;5014646;28;20022;-87
2022/04/03 01:35:23;;;;;;;8.38;5.70;;;5.50;99.90;;;;;;5015064;28;20030;-87
2022/04/03 01:37:50;;;;;;;11.40;6.32;;;5.50;99.90;;;;;;5016342;28;20029;-87
2022/04/03 01:40:16;;;;;;;6.85;5.63;;;5.50;99.90;;;;;;5016148;28;20030;-87
2022/04/03 01:42:42;;;;;;;8.95;6.30;;;5.50;99.90;;;;;;5015142;28;20442;-87
2022/04/03 01:45:08;;;;;;;7.82;5.97;;;5.50;99.90;;;;;;5015141;28;20363;-88
2022/04/03 01:47:34;;;;;;;9.73;6.28;;;5.50;99.90;;;;;;5014425;28;20120;-88
2022/04/03 01:50:00;;;;;;;8.48;5.93;;;5.50;99.90;;;;;;5013098;28;20026;-88
2022/04/03 01:52:26;;;;;;;8.52;5.90;;;5.50;99.90;;;;;;5014341;28;20485;-87
2022/04/03 01:54:52;;;;;;;8.18;6.22;;;5.50;99.90;;;;;;5014431;28;20108;-87
2022/04/03 01:57:17;;;;;;;8.02;6.10;;;5.50;99.90;;;;;;5014314;28;20028;-87
2022/04/03 01:59:43;;;;;;;8.52;6.28;;;5.50;99.90;;;;;;5015945;28;20440;-87
2022/04/03 02:02:09;;;;;;;8.13;6.30;;;5.50;99.90;;;;;;5015668;28;20028;-87
2022/04/03 02:04:35;;;;;;;9.07;6.40;;;5.50;99.90;;;;;;5014366;28;20077;-87
2022/04/03 02:07:03;;;;;;;9.18;6.43;;;5.50;99.90;;;;;;5013930;28;20026;-87
2022/04/03 02:09:30;;;;;;;9.65;5.93;;;5.50;99.90;;;;;;5015750;28;20044;-87
2022/04/03 02:11:57;;;;;;;7.10;5.65;;;5.50;99.90;;;;;;5014397;28;20480;-88
2022/04/03 02:14:24;;;;;;;9.02;5.93;;;5.50;99.90;;;;;;5014158;28;20029;-87
2022/04/03 02:16:56;;;;;;;9.02;5.97;;;5.50;99.90;;;;;;5015513;28;20385;-87
2022/04/03 02:19:22;;;;;;;8.05;6.18;;;5.50;99.90;;;;;;5013960;28;20145;-87
2022/04/03 02:21:48;;;;;;;8.02;6.40;;;5.50;99.90;;;;;;5014145;28;20116;-87
2022/04/03 02:24:14;;;;;;;9.18;6.18;;;5.50;99.90;;;;;;5013853;28;20118;-87
2022/04/03 02:26:40;;;;;;;8.75;6.18;;;5.50;99.90;;;;;;5013728;28;20026;-88
2022/04/03 02:29:06;;;;;;;8.63;5.72;;;5.50;99.90;;;;;;5013599;28;20022;-87
2022/04/03 02:31:32;;;;;;;8.25;5.97;;;5.50;99.90;;;;;;5013662;28;20041;-87
2022/04/03 02:33:58;;;;;;;7.45;5.95;;;5.40;99.90;;;;;;5013548;28;20022;-87
2022/04/03 02:36:24;;;;;;;7.30;5.85;;;5.50;99.90;;;;;;5013509;28;20065;-87
2022/04/03 02:38:50;;;;;;;9.50;6.20;;;5.50;99.90;;;;;;5014165;28;20489;-87
2022/04/03 02:41:15;;;;;;;9.80;6.82;;;5.50;99.90;;;;;;5013380;28;20065;-88
2022/04/03 02:43:41;;;;;;;9.23;6.43;;;5.50;99.90;;;;;;5013218;28;20405;-87
2022/04/03 02:46:07;;;;;;;9.02;6.32;;;5.50;99.90;;;;;;5013330;28;20080;-87
2022/04/03 02:48:33;;;;;;;7.53;6.05;;;5.40;99.90;;;;;;5013253;28;20430;-87
2022/04/03 02:50:59;;;;;;;8.10;6.10;;;5.50;99.90;;;;;;5014622;28;20026;-88
2022/04/03 02:53:26;;;;;;;10.05;6.10;;;5.50;99.90;;;;;;5013039;28;20558;-87
2022/04/03 02:55:51;;;;;;;8.30;6.13;;;5.50;99.90;;;;;;5013445;28;20037;-87
2022/04/03 02:58:17;;;;;;;7.28;5.70;;;5.40;99.90;;;;;;5013443;28;20038;-87
2022/04/03 03:00:43;;;;;;;9.88;6.00;;;5.50;99.90;;;;;;5014445;28;20026;-87
2022/04/03 03:03:09;;;;;;;9.68;6.43;;;5.40;99.90;;;;;;5012889;28;20474;-87
2022/04/03 03:05:35;;;;;;;8.13;5.50;;;5.40;99.90;;;;;;5013667;28;20026;-87
2022/04/03 03:08:01;;;;;;;7.80;5.90;;;5.40;99.90;;;;;;5013606;28;20026;-87
2022/04/03 03:10:27;;;;;;;8.05;6.40;;;5.40;99.90;;;;;;5013163;28;20087;-88
2022/04/03 03:12:53;;;;;;;11.10;6.80;;;5.40;99.90;;;;;;5013210;28;20180;-87
2022/04/03 03:15:19;;;;;;;8.98;5.88;;;5.40;99.90;;;;;;5013470;28;20026;-88
2022/04/03 03:17:46;;;;;;;8.77;6.53;;;5.40;99.90;;;;;;5012659;28;20492;-88
2022/04/03 03:20:12;;;;;;;8.43;6.30;;;5.40;99.90;;;;;;5013135;28;20021;-87
2022/04/03 03:22:38;;;;;;;9.02;6.00;;;5.40;99.90;;;;;;5014761;28;20358;-88
2022/04/03 03:25:06;;;;;;;11.35;6.53;;;5.40;99.90;;;;;;5014503;28;20458;-87
2022/04/03 03:27:36;;;;;;;8.40;6.35;;;5.40;99.90;;;;;;5013017;28;20397;-87
2022/04/03 03:30:04;;;;;;;10.60;7.00;;;5.40;99.90;;;;;;5013830;28;20025;-87
2022/04/03 03:32:29;;;;;;;9.52;7.15;;;5.40;99.90;;;;;;5014238;28;20026;-88
2022/04/03 03:34:55;;;;;;;12.52;6.97;;;5.40;99.90;;;;;;5012831;28;20024;-87
2022/04/03 03:37:21;;;;;;;11.38;6.60;;;5.40;99.90;;;;;;5012944;28;20053;-87
2022/04/03 03:39:47;;;;;;;9.40;6.47;;;5.40;99.90;;;;;;5014004;28;20018;-87
2022/04/03 03:42:14;;;;;;;9.55;7.22;;;5.40;99.90;;;;;;5012766;28;20037;-87
2022/04/03 03:44:40;;;;;;;8.82;6.75;;;5.40;99.90;;;;;;5012843;28;20369;-87
2022/04/03 03:47:07;;;;;;;10.13;6.50;;;5.40;99.90;;;;;;5013914;28;20469;-87
2022/04/03 03:49:33;;;;;;;10.05;7.47;;;5.40;99.90;;;;;;5013879;28;20022;-88
2022/04/03 03:51:59;;;;;;;11.68;7.25;;;5.40;99.90;;;;;;5012425;28;20516;-87
2022/04/03 03:54:25;;;;;;;9.23;6.45;;;5.40;99.90;;;;;;5012180;28;20026;-87
2022/04/03 03:56:51;;;;;;;14.90;7.93;;;5.40;99.90;;;;;;5012604;28;20026;-87
2022/04/03 03:59:16;;;;;;;10.20;6.85;;;5.40;99.90;;;;;;5012492;28;20025;-87
2022/04/03 04:01:42;;;;;;;9.85;7.03;;;5.40;99.90;;;;;;5013663;28;20040;-88
2022/04/03 04:04:08;;;;;;;10.27;7.50;;;5.40;99.90;;;;;;5012600;28;20022;-88
2022/04/03 04:06:34;;;;;;;11.85;7.45;;;5.40;99.90;;;;;;5013876;28;20068;-88
2022/04/03 04:09:00;;;;;;;11.95;7.47;;;5.40;99.90;;;;;;5012482;28;20022;-88
2022/04/03 04:11:25;;;;;;;10.82;7.85;;;5.40;99.90;;;;;;5012396;28;20036;-87
2022/04/03 04:13:51;;;;;;;9.48;7.35;;;5.40;99.90;;;;;;5014078;28;20057;-88
2022/04/03 04:16:17;;;;;;;9.18;7.57;;;5.30;99.90;;;;;;5016850;28;20124;-87
2022/04/03 04:18:43;;;;;;;9.00;7.47;;;5.40;99.90;;;;;;5017935;28;20093;-87
2022/04/03 04:21:10;;;;;;;10.25;7.10;;;5.40;99.90;;;;;;5017932;28;20060;-87
2022/04/03 04:23:36;;;;;;;10.93;7.80;;;5.30;99.90;;;;;;5017964;28;20021;-87
2022/04/03 04:26:01;;;;;;;10.23;7.70;;;5.30;99.90;;;;;;5016617;28;20409;-87
2022/04/03 04:28:27;;;;;;;9.38;6.97;;;5.40;99.90;;;;;;5015673;28;20025;-87
2022/04/03 04:30:54;;;;;;;10.75;7.28;;;5.40;99.90;;;;;;5016573;28;20026;-87
2022/04/03 04:33:20;;;;;;;11.38;7.55;;;5.30;99.90;;;;;;5016541;28;20026;-88
2022/04/03 04:35:45;;;;;;;11.57;7.20;;;5.30;99.90;;;;;;5016514;28;20512;-87
2022/04/03 04:38:11;;;;;;;7.85;6.43;;;5.30;99.90;;;;;;5016461;28;20094;-88
2022/04/03 04:40:36;;;;;;;9.38;7.45;;;5.30;99.90;;;;;;5016208;28;20474;-87
2022/04/03 04:43:05;;;;;;;9.90;6.65;;;5.30;99.90;;;;;;5017609;28;20022;-88
2022/04/03 04:45:30;;;;;;;8.13;6.72;;;5.30;99.90;;;;;;5016284;28;20334;-87
2022/04/03 04:47:59;;;;;;;9.15;7.00;;;5.30;99.90;;;;;;5016069;28;20018;-87
2022/04/03 04:50:29;;;;;;;10.07;7.18;;;5.30;99.90;;;;;;5015812;28;20037;-88
2022/04/03 04:52:56;;;;;;;10.00;7.40;;;5.30;99.90;;;;;;5015399;28;20103;-87
2022/04/03 04:55:23;;;;;;;10.40;7.25;;;5.30;99.90;;;;;;5015717;28;20116;-87
2022/04/03 04:57:51;;;;;;;10.48;6.82;;;5.30;99.90;;;;;;5016683;28;20041;-87
2022/04/03 05:00:18;;;;;;;9.80;6.97;;;5.30;99.90;;;;;;5015513;28;20057;-87
2022/04/03 05:02:46;;;;;;;9.95;7.07;;;5.30;99.90;;;;;;5016613;28;20393;-87
2022/04/03 05:05:13;;;;;;;10.68;7.18;;;5.30;99.90;;;;;;5014914;28;20033;-87
2022/04/03 05:07:39;;;;;;;10.50;6.78;;;5.30;99.90;;;;;;5016591;28;20025;-87
2022/04/03 05:10:06;;;;;;;9.02;6.80;;;5.30;99.90;;;;;;5016912;28;20416;-87
2022/04/03 05:12:34;;;;;;;10.32;7.25;;;5.30;99.90;;;;;;5015734;28;20040;-87
2022/04/03 05:14:59;;;;;;;8.75;6.70;;;5.30;99.90;;;;;;5016426;28;20029;-87
2022/04/03 05:17:26;;;;;;;10.38;7.05;;;5.30;99.90;;;;;;5015229;28;20388;-87
2022/04/03 05:19:54;;;;;;;9.85;7.35;;;5.30;99.90;;;;;;5015147;28;20495;-87
2022/04/03 05:22:23;;;;;;;11.65;7.07;;;5.30;99.90;;;;;;5016306;28;20084;-87
2022/04/03 05:24:55;;;;;;;9.10;7.20;;;5.30;99.90;;;;;;5014876;28;20049;-88
2022/04/03 05:27:21;;;;;;;9.70;7.05;;;5.30;99.90;;;;;;5015498;28;20054;-87
2022/04/03 05:29:47;;;;;;;8.98;6.75;;;5.30;99.90;;;;;;5014820;28;20108;-87
2022/04/03 05:32:13;;;;;;;9.75;7.10;;;5.30;99.90;;;;;;5014650;28;20481;-87
2022/04/03 05:34:39;;;;;;;9.52;7.13;;;5.30;99.90;;;;;;5014707;28;20057;-87
2022/04/03 05:37:05;;;;;;;10.07;6.93;;;5.30;99.90;;;;;;5014642;28;20076;-87
2022/04/03 05:39:31;;;;;;;9.32;7.07;;;5.30;99.90;;;;;;5015027;28;20452;-87
2022/04/03 05:41:57;;;;;;;8.30;6.57;;;5.30;99.90;;;;;;5015716;28;20057;-87
2022/04/03 05:44:23;;;;;;;8.98;6.68;;;5.30;99.90;;;;;;5015613;28;20026;-87
2022/04/03 05:46:51;;;;;;;9.75;7.35;;;5.30;99.90;;;;;;5014404;28;20076;-87
2022/04/03 05:49:18;;;;;;;10.63;7.15;;;5.30;99.90;;;;;;5015479;28;20404;-87
2022/04/03 05:51:44;;;;;;;11.60;6.85;;;5.30;99.90;;;;;;5015399;28;20029;-88
2022/04/03 05:54:10;;;;;;;10.77;7.30;;;5.30;99.90;;;;;;5014075;28;20075;-86
2022/04/03 05:56:37;;;;;;;10.77;7.30;;;5.30;99.90;;;;;;5014114;28;20018;-87
2022/04/03 05:59:03;;;;;;;8.45;6.70;;;5.30;99.90;;;;;;5014489;28;20477;-89
2022/04/03 06:01:28;;;;;;;9.27;7.10;;;5.30;99.90;;;;;;5013879;28;20026;-88
2022/04/03 06:03:54;;;;;;;11.05;7.18;;;5.30;99.90;;;;;;5014022;28;20527;-88
2022/04/03 06:06:20;;;;;;;10.55;6.88;;;5.30;99.90;;;;;;5013854;28;20033;-88
2022/04/03 06:08:45;;;;;;;12.05;6.50;;;5.30;99.90;;;;;;5014066;28;20021;-88
2022/04/03 06:11:11;;;;;;;10.25;6.68;;;5.30;99.90;;;;;;5013854;28;20033;-88
2022/04/03 06:13:37;;;;;;;10.68;6.63;;;5.30;99.90;;;;;;5015228;28;20030;-88
2022/04/03 06:16:03;;;;;;;9.45;6.78;;;5.30;99.90;;;;;;5013667;28;20389;-88
2022/04/03 06:18:29;;;;;;;8.25;6.15;;;5.40;99.90;;;;;;5013610;28;20029;-88
2022/04/03 06:20:55;;;;;;;7.72;6.10;;;5.30;99.90;;;;;;5013545;28;20026;-88
2022/04/03 06:23:22;;;;;;;10.27;6.45;;;5.40;99.90;;;;;;5014793;28;20436;-88
2022/04/03 06:25:52;;;;;;;8.98;6.32;;;5.40;99.90;;;;;;5013490;28;20477;-87
2022/04/03 06:28:18;;;;;;;8.52;6.70;;;5.40;99.90;;;;;;5013501;28;20481;-88
2022/04/03 06:30:44;;;;;;;8.25;6.32;;;5.40;99.90;;;;;;5013418;28;20029;-88
2022/04/03 06:33:10;;;;;;;9.50;6.40;;;5.40;99.90;;;;;;5013297;28;20026;-88
2022/04/03 06:35:36;;;;;;;8.30;5.88;;;5.40;99.90;;;;;;5013190;28;20037;-88
2022/04/03 06:38:03;;;;;;;8.70;6.05;;;5.40;99.90;;;;;;5014381;28;20076;-88
2022/04/03 06:40:28;;;;;;;6.85;5.88;;;5.40;99.90;;;;;;5013863;28;20466;-88
2022/04/03 06:42:54;;;;;;;10.15;6.05;;;5.40;99.90;;;;;;5014470;28;20029;-88
2022/04/03 06:45:21;;;;;;;7.32;5.35;;;5.50;99.90;;;;;;5013089;28;20077;-88
2022/04/03 06:47:47;;;;;;;7.55;5.40;;;5.50;99.90;;;;;;5014548;28;20018;-88
2022/04/03 06:50:13;;;;;;;8.90;5.93;;;5.50;99.90;;;;;;5012906;28;20032;-87
2022/04/03 06:52:39;;;;;;;10.02;5.53;;;5.50;99.90;;;;;;5012825;28;20053;-87
2022/04/03 06:55:06;;;;;;;8.27;5.63;;;5.50;99.90;;;;;;5012857;28;20073;-87
2022/04/03 06:57:31;;;;;;;9.18;5.88;;;5.50;99.90;;;;;;5014213;28;20026;-87
2022/04/03 06:59:58;;;;;;;7.35;5.55;;;5.50;99.90;;;;;;5012699;28;20028;-88
2022/04/03 07:02:24;;;;;;;9.93;5.80;;;5.50;99.90;;;;;;5012748;28;20057;-87
2022/04/03 07:04:50;;;;;;;6.55;5.00;;;5.60;99.90;;;;;;5012736;28;20458;-87
2022/04/03 07:07:23;;;;;;;8.25;5.63;;;5.50;99.90;;;;;;5012655;28;20022;-87
2022/04/03 07:09:49;;;;;;;8.57;5.32;;;5.50;99.90;;;;;;5012645;28;20068;-87
2022/04/03 07:12:14;;;;;;;8.30;5.53;;;5.60;99.90;;;;;;5013869;28;20029;-87
2022/04/03 07:14:40;;;;;;;7.45;5.20;;;5.60;99.90;;;;;;5012584;28;20079;-88
2022/04/03 07:17:06;;;;;;;7.75;5.55;;;5.60;99.90;;;;;;5012510;28;20030;-87
2022/04/03 07:19:33;;;;;;;6.20;4.82;;;5.60;99.90;;;;;;5012482;28;20026;-89
2022/04/03 07:21:59;;;;;;;8.70;5.45;;;5.70;99.90;;;;;;5012372;28;20496;-89
2022/04/03 07:24:25;;;;;;;7.43;5.25;;;5.70;99.90;;;;;;5013680;28;20052;-88
2022/04/03 07:26:51;;;;;;;7.43;5.28;;;5.70;99.90;;;;;;5012520;28;20026;-89
2022/04/03 07:29:17;;;;;;;8.15;5.00;;;5.70;99.90;;;;;;5013013;28;20109;-89
2022/04/03 07:31:43;;;;;;;10.00;5.35;;;5.70;99.90;;;;;;5012655;28;20113;-89
2022/04/03 07:34:08;;;;;;;8.30;4.88;;;5.70;99.90;;;;;;5012716;28;20026;-89
2022/04/03 07:36:34;;;;;;;6.28;4.68;;;5.70;99.90;;;;;;5013718;28;20025;-89
2022/04/03 07:39:00;;;;;;;6.30;4.80;;;5.70;99.90;;;;;;5013651;28;20095;-89
2022/04/03 07:41:25;;;;;;;9.05;5.18;;;5.70;99.90;;;;;;5012167;28;20026;-88
2022/04/03 07:43:51;;;;;;;7.70;4.72;;;5.80;99.90;;;;;;5012163;28;20117;-88
2022/04/03 07:46:17;;;;;;;6.13;4.65;;;5.80;99.90;;;;;;5013506;28;20072;-88
2022/04/03 07:48:43;;;;;;;7.38;5.10;;;5.70;99.90;;;;;;5012135;28;20026;-89
2022/04/03 07:51:10;;;;;;;8.10;4.97;;;5.80;99.90;;;;;;5012044;28;20026;-88
2022/04/03 07:53:36;;;;;;;6.10;4.78;;;5.80;99.90;;;;;;5011904;28;20524;-89
2022/04/03 07:56:04;;;;;;;6.18;4.70;;;5.80;99.90;;;;;;5012098;28;20038;-89
2022/04/03 07:58:30;;;;;;;7.22;4.45;;;5.80;99.90;;;;;;5013325;28;20022;-89
2022/04/03 08:00:56;;;;;;;8.48;4.35;;;5.80;99.90;;;;;;5011939;28;20026;-89
2022/04/03 08:03:22;;;;;;;5.95;4.38;;;5.90;99.90;;;;;;5013593;28;20021;-89
2022/04/03 08:05:48;;;;;;;6.70;4.43;;;6.00;99.90;;;;;;5012094;28;20478;-89
2022/04/03 08:08:14;;;;;;;5.63;4.20;;;6.00;99.90;;;;;;5013422;28;20029;-90
2022/04/03 08:10:39;;;;;;;5.85;4.25;;;6.10;99.90;;;;;;5013202;28;20140;-90
2022/04/03 08:13:05;;;;;;;5.80;4.18;;;6.20;99.90;;;;;;5012073;28;20022;-90
2022/04/03 08:15:31;;;;;;;5.45;4.18;;;6.20;99.90;;;;;;5012139;28;20092;-90
2022/04/03 08:17:56;;;;;;;7.28;4.30;;;6.20;99.90;;;;;;5012175;28;20077;-90
2022/04/03 08:20:22;;;;;;;6.03;4.63;;;6.30;99.90;;;;;;5012082;28;20467;-90
2022/04/03 08:22:51;;;;;;;6.05;4.03;;;6.20;99.90;;;;;;5012463;28;20030;-91
2022/04/03 08:25:18;;;;;;;6.10;4.35;;;6.30;99.90;;;;;;5012419;28;20029;-91
2022/04/03 08:27:47;;;;;;;4.88;4.13;;;6.30;99.90;;;;;;5013498;28;20485;-90
2022/04/03 08:30:16;;;;;;;7.70;4.60;;;6.30;99.90;;;;;;5012183;28;20117;-90
2022/04/03 08:32:43;;;;;;;5.93;4.60;;;6.30;99.90;;;;;;5012112;28;20030;-90
2022/04/03 08:35:09;;;;;;;5.32;3.95;;;6.30;99.90;;;;;;5013141;28;20366;-90
2022/04/03 08:37:35;;;;;;;6.05;4.07;;;6.20;99.90;;;;;;5011834;28;20036;-90
2022/04/03 08:40:03;;;;;;;6.43;3.92;;;6.30;99.90;;;;;;5013025;28;20026;-90
2022/04/03 08:42:29;;;;;;;4.72;3.63;;;6.30;99.90;;;;;;5013341;28;20236;-91
2022/04/03 08:44:55;;;;;;;5.75;3.70;;;6.30;99.90;;;;;;5012121;28;20497;-90
2022/04/03 08:47:22;;;;;;;5.93;4.40;;;6.30;99.90;;;;;;5011891;28;20033;-90
2022/04/03 08:49:47;;;;;;;7.60;4.07;;;6.30;99.90;;;;;;5011842;28;20049;-89
2022/04/03 08:52:16;;;;;;;7.00;4.30;;;6.30;99.90;;;;;;5011590;28;20046;-83
2022/04/03 08:54:42;;;;;;;5.28;3.90;;;6.30;99.90;;;;;;5012790;28;20022;-89
2022/04/03 08:57:08;;;;;;;5.60;3.83;;;6.30;99.90;;;;;;5011639;28;20144;-89
2022/04/03 08:59:36;;;;;;;5.55;4.13;;;6.30;99.90;;;;;;5012701;28;20496;-89
2022/04/03 09:02:01;;;;;;;5.25;3.78;;;6.30;99.90;;;;;;5015245;28;20362;-89
2022/04/03 09:04:30;;;;;;;6.55;4.10;;;6.30;99.90;;;;;;5016633;28;20029;-89
2022/04/03 09:06:58;;;;;;;5.57;4.03;;;6.30;99.90;;;;;;5015473;28;20014;-90
2022/04/03 09:09:25;;;;;;;6.50;3.97;;;6.30;99.90;;;;;;5016554;28;20071;-90
2022/04/03 09:12:15;;;;;;;4.97;3.80;;;6.30;99.90;;;;;;5015196;28;20034;-90
2022/04/03 09:14:59;;;;;;;4.65;3.58;;;6.30;99.90;;;;;;5016460;28;20022;-90
2022/04/03 09:17:33;;;;;;;5.95;3.92;;;6.40;99.90;;;;;;5016339;28;20033;-90
2022/04/03 09:20:05;;;;;;;6.00;3.88;;;6.50;99.90;;;;;;5015178;28;20026;-90
2022/04/03 09:22:32;;;;;;;5.07;4.15;;;6.60;99.90;;;;;;5015531;28;20033;-90
2022/04/03 09:24:58;;;;;;;5.75;3.78;;;6.70;99.90;;;;;;5015007;28;20046;-90
2022/04/03 09:27:24;;;;;;;4.95;3.58;;;6.80;99.90;;;;;;5014858;28;20022;-89
2022/04/03 09:30:07;;;;;;;6.65;4.07;;;6.90;99.90;;;;;;5014722;28;20430;-89
2022/04/03 09:32:34;;;;;;;6.65;3.70;;;6.90;99.90;;;;;;5015994;28;20030;-89
2022/04/03 09:35:00;;;;;;;5.80;3.58;;;6.80;99.90;;;;;;5014513;28;20045;-87
2022/04/03 09:37:26;;;;;;;5.47;3.50;;;7.00;99.90;;;;;;5016114;28;20065;-87
2022/04/03 09:39:53;;;;;;;6.15;4.07;;;7.00;99.90;;;;;;5014380;28;20026;-86
2022/04/03 09:42:19;;;;;;;4.25;3.50;;;7.00;99.90;;;;;;5014156;28;20160;-85
2022/04/03 09:44:47;;;;;;;4.50;3.38;;;7.00;99.90;;;;;;5015689;28;20022;-84
2022/04/03 09:47:19;;;;;;;4.40;3.50;;;7.00;99.90;;;;;;5015733;28;20358;-83
2022/04/03 09:50:00;;;;;;;6.35;3.70;;;7.00;99.90;;;;;;5015368;28;20018;-84
2022/04/03 09:52:40;;;;;;;5.55;3.75;;;7.00;99.90;;;;;;5013893;28;20485;-84
2022/04/03 09:55:19;;;;;;;5.60;3.65;;;7.00;99.90;;;;;;5014007;28;20516;-86
2022/04/03 09:57:47;;;;;;;6.15;3.70;;;7.00;99.90;;;;;;5013984;28;20025;-89
2022/04/03 10:00:26;;;;;;;7.32;3.67;;;7.00;99.90;;;;;;5014094;28;20400;-91
2022/04/03 10:02:59;;;;;;;5.30;3.08;;;7.00;99.90;;;;;;5014726;28;20477;-92
2022/04/03 10:05:26;;;;;;;6.90;3.67;;;6.90;99.90;;;;;;5014752;28;20045;-92
2022/04/03 10:07:53;;;;;;;5.55;3.72;;;6.80;99.90;;;;;;5014743;28;20590;-91
2022/04/03 10:10:18;;;;;;;4.88;3.53;;;6.80;99.90;;;;;;5014286;28;20023;-90
2022/04/03 10:12:44;;;;;;;4.82;3.60;;;6.80;99.90;;;;;;5014655;28;20021;-89
2022/04/03 10:15:10;;;;;;;5.75;4.18;;;6.80;99.90;;;;;;5015133;28;20439;-89
2022/04/03 10:17:36;;;;;;;8.55;3.60;;;6.70;99.90;;;;;;5013876;28;20054;-88
2022/04/03 10:20:02;;;;;;;7.40;3.78;;;6.80;99.90;;;;;;5015238;28;20034;-88
2022/04/03 10:22:32;;;;;;;5.28;3.85;;;6.70;99.90;;;;;;5013928;28;20026;-88
2022/04/03 10:25:03;;;;;;;6.15;3.65;;;6.70;99.90;;;;;;5013979;28;20121;-88
2022/04/03 10:27:39;;;;;;;5.88;3.70;;;6.70;99.90;;;;;;5013601;28;20018;-88
2022/04/03 10:30:10;;;;;;;6.47;3.75;;;6.70;99.90;;;;;;5013499;28;20026;-88
2022/04/03 10:32:37;;;;;;;5.53;3.50;;;6.60;99.90;;;;;;5014977;28;20465;-87
2022/04/03 10:35:06;;;;;;;4.57;3.40;;;6.60;99.90;;;;;;5013590;28;20080;-87
2022/04/03 10:37:41;;;;;;;7.10;3.65;;;6.60;99.90;;;;;;5014561;28;20026;-87
2022/04/03 10:40:11;;;;;;;6.43;3.38;;;6.50;99.90;;;;;;5013490;28;20053;-87
2022/04/03 10:42:49;;;;;;;5.03;3.15;;;6.50;99.90;;;;;;5014920;28;20482;-87
2022/04/03 10:45:17;;;;;;;4.55;3.30;;;6.50;99.90;;;;;;5013242;28;20057;-86
2022/04/03 10:47:43;;;;;;;8.90;3.53;;;6.40;99.90;;;;;;5013522;28;20431;-86
2022/04/03 10:50:10;;;;;;;4.88;3.08;;;6.40;99.90;;;;;;5013074;28;20029;-86
2022/04/03 10:52:36;;;;;;;4.78;3.40;;;6.40;99.90;;;;;;5013120;28;20501;-86
2022/04/03 10:55:20;;;;;;;5.13;3.65;;;6.40;99.90;;;;;;5012961;28;20022;-86
2022/04/03 10:58:02;;;;;;;4.50;2.78;;;6.40;99.90;;;;;;5012926;28;20022;-86
2022/04/03 11:00:27;;;;;;;5.88;3.25;;;6.30;99.90;;;;;;5012761;28;20091;-86
2022/04/03 11:02:56;;;;;;;6.72;3.00;;;6.30;99.90;;;;;;5012754;28;20022;-86
2022/04/03 11:05:21;;;;;;;4.35;2.97;;;6.30;99.90;;;;;;5012666;28;20021;-85
2022/04/03 11:08:10;;;;;;;4.22;2.70;;;6.30;99.90;;;;;;5012687;28;20492;-86
2022/04/03 11:10:54;;;;;;;4.57;3.00;;;6.30;99.90;;;;;;4999863;28;20045;-86
2022/04/03 11:13:29;;;;;;;6.65;3.40;;;6.30;99.90;;;;;;5012651;28;20068;-86
2022/04/03 11:15:56;;;;;;;5.78;3.35;;;6.30;99.90;;;;;;5012567;28;20033;-85
2022/04/03 11:18:41;;;;;;;5.65;2.83;;;6.30;99.90;;;;;;5013813;28;20030;-85
2022/04/03 11:21:26;;;;;;;4.32;3.08;;;6.30;99.90;;;;;;5012489;28;20050;-85
2022/04/03 11:24:03;;;;;;;4.85;2.80;;;6.30;99.90;;;;;;5012231;28;20025;-85
2022/04/03 11:26:30;;;;;;;3.85;2.75;;;6.40;99.90;;;;;;5013679;28;20501;-85
2022/04/03 11:28:56;;;;;;;4.55;2.50;;;6.40;99.90;;;;;;5012364;28;20028;-85
2022/04/03 11:31:22;;;;;;;3.80;2.50;;;6.40;99.90;;;;;;5013610;28;20389;-86
2022/04/03 11:33:48;;;;;;;5.10;2.70;;;6.40;99.90;;;;;;5013606;28;20385;-85
2022/04/03 11:36:29;;;;;;;3.70;2.70;;;6.40;99.90;;;;;;5012314;28;20037;-86
2022/04/03 11:38:55;;;;;;;3.65;2.60;;;6.40;99.90;;;;;;5012835;28;20462;-85
2022/04/03 11:41:31;;;;;;;3.13;2.58;;;6.40;99.90;;;;;;5012123;28;20026;-85
2022/04/03 11:43:59;;;;;;;3.38;2.60;;;6.50;99.90;;;;;;5012176;28;20022;-86
2022/04/03 11:46:25;;;;;;;3.80;2.67;;;6.50;99.90;;;;;;5012102;28;20113;-86
2022/04/03 11:48:51;;;;;;;5.20;2.80;;;6.50;99.90;;;;;;5012070;28;20026;-86
2022/04/03 11:51:19;;;;;;;3.60;2.42;;;6.60;99.90;;;;;;5011990;28;20030;-85
2022/04/03 11:53:59;;;;;;;5.20;3.10;;;6.60;99.90;;;;;;5011830;28;20515;-86
2022/04/03 11:56:26;;;;;;;3.88;2.67;;;6.60;99.90;;;;;;5012038;28;20113;-86
2022/04/03 11:58:59;;;;;;;3.63;2.60;;;6.60;99.90;;;;;;5011955;28;20030;-86
2022/04/03 12:01:33;;;;;;;3.45;2.50;;;6.60;99.90;;;;;;5013436;28;20076;-86
2022/04/03 12:04:09;;;;;;;3.55;2.50;;;6.60;99.90;;;;;;5013427;28;20068;-86
2022/04/03 12:06:35;;;;;;;5.53;3.00;;;6.60;99.90;;;;;;5011876;28;20018;-86
2022/04/03 12:09:08;;;;;;;5.10;3.17;;;6.60;99.90;;;;;;5011840;28;20022;-85
2022/04/03 12:11:35;;;;;;;4.78;3.03;;;6.60;99.90;;;;;;5011836;28;20026;-86
2022/04/03 12:14:02;;;;;;;7.35;3.50;;;6.60;99.90;;;;;;5013053;28;20529;-85
2022/04/03 12:16:34;;;;;;;5.13;3.20;;;6.70;99.90;;;;;;5011784;28;20036;-85
2022/04/03 12:19:06;;;;;;;4.72;3.22;;;6.70;99.90;;;;;;5011745;28;20025;-85
2022/04/03 12:21:51;;;;;;;4.63;3.10;;;6.70;99.90;;;;;;5011646;28;20021;-86
2022/04/03 12:24:17;;;;;;;;;;;6.70;99.90;;;;;;5013485;28;20149;-86
2022/04/03 12:27:00;;;;;;;7.05;3.60;;;6.70;99.90;;;;;;5011918;28;20384;-85
2022/04/03 12:29:31;;;;;;;4.10;2.83;;;6.70;99.90;;;;;;5011737;28;20057;-85
2022/04/03 12:32:01;;;;;;;4.85;2.60;;;6.70;99.90;;;;;;5012879;28;20032;-85
2022/04/03 12:34:29;;;;;;;4.38;3.10;;;6.60;99.90;;;;;;5013523;28;20040;-85
2022/04/03 12:36:57;;;;;;;4.68;3.17;;;6.60;99.90;;;;;;5015570;28;20026;-85
2022/04/03 12:39:44;;;;;;;4.72;2.90;;;6.60;99.90;;;;;;5015442;28;20065;-84
2022/04/03 12:42:16;;;;;;;4.55;2.95;;;6.60;99.90;;;;;;5016660;28;20025;-84
2022/04/03 12:45:08;;;;;;;5.30;2.95;;;6.60;99.90;;;;;;5015354;28;20029;-84
2022/04/03 12:47:42;;;;;;;5.30;3.03;;;6.60;99.90;;;;;;5015370;28;20018;-84
2022/04/03 12:50:12;;;;;;;6.63;3.00;;;6.60;99.90;;;;;;5015099;28;20476;-84
2022/04/03 12:52:42;;;;;;;3.90;2.80;;;6.50;99.90;;;;;;5015098;28;20497;-84
2022/04/03 12:55:29;;;;;;;4.53;2.70;;;6.60;99.90;;;;;;5013884;28;20018;-84
2022/04/03 13:00:43;;;;;;;4.88;3.00;;;6.60;99.90;;;;;;5015089;28;20049;-83